Time;durP1;ratioP1;P1;durP2;ratioP2;P2;SDS_P1;SDS_P2;PMS_P1;PMS_P2;Temp;Humidity;BMP_temperature;BMP_pressure;BME280_temperature;BME280_humidity;BME280_pressure;Samples;Min_cycle;Max_cycle;Signal;HPM_P1;HPM_P2
2021/05/03 00:01:09;;;;;;;11.98;8.45;;;6.60;99.90;;;;;;5030303;28;20045;-86
2021/05/03 00:03:35;;;;;;;12.57;7.45;;;6.70;99.90;;;;;;5031788;28;20496;-86
2021/05/03 00:06:00;;;;;;;8.38;7.07;;;6.60;99.90;;;;;;5031189;28;20033;-85
2021/05/03 00:08:26;;;;;;;7.82;6.78;;;6.60;99.90;;;;;;5028963;28;20108;-85
2021/05/03 00:10:52;;;;;;;8.00;6.88;;;6.70;99.90;;;;;;5029713;28;20500;-86
2021/05/03 00:13:19;;;;;;;7.70;7.00;;;6.50;99.90;;;;;;5029077;28;20370;-86
2021/05/03 00:15:45;;;;;;;10.35;7.80;;;6.50;99.90;;;;;;5030536;28;20022;-86
2021/05/03 00:18:11;;;;;;;8.38;6.82;;;6.50;99.90;;;;;;5029867;28;20025;-85
2021/05/03 00:20:37;;;;;;;13.07;8.13;;;6.50;99.90;;;;;;5030543;28;20064;-85
2021/05/03 00:23:03;;;;;;;10.23;7.90;;;6.50;99.90;;;;;;5034040;28;20027;-85
2021/05/03 00:25:29;;;;;;;9.68;7.80;;;6.40;99.90;;;;;;5032869;28;20033;-86
2021/05/03 00:27:54;;;;;;;11.73;7.95;;;6.40;99.90;;;;;;5034421;28;20053;-85
2021/05/03 00:30:20;;;;;;;11.25;8.00;;;6.50;99.90;;;;;;5036505;28;20084;-86
2021/05/03 00:32:46;;;;;;;10.10;7.63;;;6.40;99.90;;;;;;5033659;28;20087;-86
2021/05/03 00:35:13;;;;;;;10.15;7.60;;;6.30;99.90;;;;;;5034208;28;20456;-86
2021/05/03 00:37:39;;;;;;;7.97;7.18;;;6.40;99.90;;;;;;5032462;28;20045;-86
2021/05/03 00:40:06;;;;;;;9.75;7.80;;;6.30;99.90;;;;;;5033950;28;20092;-85
2021/05/03 00:42:32;;;;;;;10.13;7.90;;;5.90;99.90;;;;;;5035332;28;20428;-85
2021/05/03 00:45:04;;;;;;;10.75;8.30;;;5.90;99.90;;;;;;5034413;28;20087;-85
2021/05/03 00:47:29;;;;;;;8.93;7.57;;;5.90;99.90;;;;;;5034052;28;20041;-85
2021/05/03 00:49:55;;;;;;;9.40;8.20;;;5.90;99.90;;;;;;5033867;28;20030;-85
2021/05/03 00:52:20;;;;;;;11.07;8.20;;;6.00;99.90;;;;;;5034392;28;20033;-85
2021/05/03 00:54:46;;;;;;;12.98;9.35;;;6.00;99.90;;;;;;5033556;28;20018;-86
2021/05/03 00:57:12;;;;;;;11.85;8.80;;;6.20;99.90;;;;;;5033326;28;20904;-86
2021/05/03 00:59:37;;;;;;;11.02;8.40;;;6.10;99.90;;;;;;5033494;28;20033;-86
2021/05/03 01:02:03;;;;;;;9.52;8.13;;;6.00;99.90;;;;;;5033489;28;20044;-85
2021/05/03 01:04:28;;;;;;;10.75;7.93;;;6.00;99.90;;;;;;5033834;28;20101;-86
2021/05/03 01:06:54;;;;;;;9.20;7.95;;;6.00;99.90;;;;;;5033336;28;20048;-85
2021/05/03 01:09:19;;;;;;;8.45;7.55;;;6.00;99.90;;;;;;5035359;28;20083;-86
2021/05/03 01:11:45;;;;;;;8.88;7.97;;;6.00;99.90;;;;;;5031890;28;20100;-85
2021/05/03 01:14:11;;;;;;;9.15;7.93;;;6.00;99.90;;;;;;5033522;28;20371;-85
2021/05/03 01:16:36;;;;;;;12.52;8.10;;;5.90;99.90;;;;;;5033636;28;20500;-85
2021/05/03 01:19:03;;;;;;;11.45;7.82;;;5.90;99.90;;;;;;5033348;28;20025;-85
2021/05/03 01:21:29;;;;;;;8.40;7.60;;;6.00;99.90;;;;;;5035003;28;20038;-85
2021/05/03 01:23:55;;;;;;;8.32;7.35;;;5.90;99.90;;;;;;5032797;28;20032;-85
2021/05/03 01:26:20;;;;;;;9.10;7.93;;;5.90;99.90;;;;;;5033506;28;20033;-85
2021/05/03 01:28:46;;;;;;;9.27;8.00;;;6.00;99.90;;;;;;5033051;28;20032;-85
2021/05/03 01:31:13;;;;;;;9.20;8.18;;;5.90;99.90;;;;;;5033113;28;20029;-85
2021/05/03 01:33:39;;;;;;;9.00;8.10;;;5.90;99.90;;;;;;5034070;28;20091;-85
2021/05/03 01:36:05;;;;;;;9.75;7.85;;;5.90;99.90;;;;;;5033635;28;20029;-84
2021/05/03 01:38:31;;;;;;;8.25;7.45;;;5.90;99.90;;;;;;5032611;28;20095;-85
2021/05/03 01:40:57;;;;;;;11.27;7.68;;;5.80;99.90;;;;;;5031883;28;20569;-85
2021/05/03 01:43:26;;;;;;;9.18;7.75;;;5.80;99.90;;;;;;5032703;28;20120;-85
2021/05/03 01:45:56;;;;;;;8.98;7.70;;;5.80;99.90;;;;;;5033283;28;20048;-85
2021/05/03 01:48:25;;;;;;;9.48;7.80;;;5.50;99.90;;;;;;5035150;28;20495;-86
2021/05/03 01:50:52;;;;;;;8.95;8.05;;;5.60;99.90;;;;;;5032155;28;20036;-85
2021/05/03 01:53:18;;;;;;;11.82;8.13;;;5.00;99.90;;;;;;5032552;28;20025;-86
2021/05/03 01:55:56;;;;;;;9.45;8.25;;;4.90;99.90;;;;;;5032761;28;20025;-85
2021/05/03 01:58:22;;;;;;;10.85;8.70;;;5.00;99.90;;;;;;5032875;28;20057;-85
2021/05/03 02:00:49;;;;;;;9.48;8.52;;;5.10;99.90;;;;;;5032949;28;20037;-85
2021/05/03 02:03:23;;;;;;;10.90;8.45;;;5.10;99.90;;;;;;5034508;28;20021;-86
2021/05/03 02:05:49;;;;;;;9.63;8.63;;;5.30;99.90;;;;;;5033499;28;20029;-85
2021/05/03 02:08:16;;;;;;;10.60;8.27;;;5.20;99.90;;;;;;5032739;28;20029;-85
2021/05/03 02:10:41;;;;;;;9.10;8.20;;;5.20;99.90;;;;;;5031961;28;20029;-85
2021/05/03 02:13:08;;;;;;;10.20;9.02;;;5.20;99.90;;;;;;5033089;28;20113;-85
2021/05/03 02:15:34;;;;;;;10.77;8.90;;;5.20;99.90;;;;;;5033730;28;20500;-85
2021/05/03 02:18:01;;;;;;;13.25;9.15;;;5.20;99.90;;;;;;5033476;28;20159;-85
2021/05/03 02:20:27;;;;;;;10.25;9.15;;;4.60;99.90;;;;;;5032257;28;20038;-84
2021/05/03 02:22:52;;;;;;;12.30;9.20;;;4.80;99.90;;;;;;5032049;28;20028;-85
2021/05/03 02:25:18;;;;;;;9.55;8.55;;;4.90;99.90;;;;;;5031849;28;20021;-84
2021/05/03 02:27:43;;;;;;;10.80;9.50;;;5.40;99.90;;;;;;5031693;28;20025;-84
2021/05/03 02:30:10;;;;;;;10.88;9.38;;;4.80;99.90;;;;;;5031616;28;20080;-84
2021/05/03 02:32:39;;;;;;;11.63;9.52;;;4.80;99.90;;;;;;5031814;28;20037;-84
2021/05/03 02:35:15;;;;;;;10.55;9.50;;;4.80;99.90;;;;;;5031727;28;20025;-84
2021/05/03 02:37:42;;;;;;;13.55;9.38;;;4.90;99.90;;;;;;5031730;28;20025;-84
2021/05/03 02:40:08;;;;;;;9.95;8.85;;;4.90;99.90;;;;;;5031855;28;20116;-84
2021/05/03 02:42:34;;;;;;;10.63;9.13;;;5.10;99.90;;;;;;5033794;28;20049;-84
2021/05/03 02:45:00;;;;;;;11.65;9.18;;;5.10;99.90;;;;;;5029956;28;20057;-84
2021/05/03 02:47:26;;;;;;;9.55;8.55;;;5.00;99.90;;;;;;5032310;28;20435;-85
2021/05/03 02:49:51;;;;;;;11.35;9.32;;;5.00;99.90;;;;;;5028982;28;20021;-85
2021/05/03 02:52:17;;;;;;;10.63;9.45;;;5.00;99.90;;;;;;5031550;28;20563;-85
2021/05/03 02:54:43;;;;;;;14.25;9.82;;;5.10;99.90;;;;;;5032098;28;20431;-85
2021/05/03 02:57:08;;;;;;;11.00;9.80;;;5.00;99.90;;;;;;5032791;28;20112;-85
2021/05/03 02:59:34;;;;;;;11.50;9.82;;;5.00;99.90;;;;;;5031838;28;20116;-85
2021/05/03 03:01:59;;;;;;;10.20;9.07;;;5.00;99.90;;;;;;5029941;28;20037;-85
2021/05/03 03:04:25;;;;;;;12.23;9.80;;;5.00;99.90;;;;;;5030884;28;20426;-85
2021/05/03 03:06:50;;;;;;;12.15;10.15;;;5.10;99.90;;;;;;5031457;28;20105;-85
2021/05/03 03:09:16;;;;;;;11.88;9.98;;;5.00;99.90;;;;;;5033593;28;20024;-85
2021/05/03 03:11:46;;;;;;;11.55;9.93;;;5.00;99.90;;;;;;5031104;28;20037;-85
2021/05/03 03:14:11;;;;;;;11.55;10.27;;;5.00;99.90;;;;;;5030920;28;20116;-84
2021/05/03 03:16:37;;;;;;;11.90;9.68;;;5.00;99.90;;;;;;5031372;28;20576;-85
2021/05/03 03:19:03;;;;;;;12.77;9.95;;;4.90;99.90;;;;;;5031219;28;20022;-85
2021/05/03 03:21:29;;;;;;;11.90;10.00;;;5.00;99.90;;;;;;5032377;28;20045;-85
2021/05/03 03:23:55;;;;;;;12.50;10.50;;;5.00;99.90;;;;;;5030952;28;20504;-85
2021/05/03 03:26:20;;;;;;;12.07;10.00;;;5.10;99.90;;;;;;5030738;28;20032;-85
2021/05/03 03:28:46;;;;;;;11.05;9.73;;;4.70;99.90;;;;;;5030747;28;20409;-85
2021/05/03 03:31:12;;;;;;;11.60;10.40;;;4.80;99.90;;;;;;5031195;28;20022;-84
2021/05/03 03:33:37;;;;;;;10.98;9.32;;;4.70;99.90;;;;;;5031660;28;20509;-84
2021/05/03 03:36:05;;;;;;;11.23;10.00;;;4.80;99.90;;;;;;5031130;28;20030;-84
2021/05/03 03:38:31;;;;;;;11.75;9.48;;;4.70;99.90;;;;;;5029221;28;20163;-84
2021/05/03 03:40:57;;;;;;;11.05;9.88;;;4.30;99.90;;;;;;5030564;28;20115;-84
2021/05/03 03:43:23;;;;;;;11.60;9.85;;;4.40;99.90;;;;;;5029936;28;20168;-85
2021/05/03 03:45:48;;;;;;;11.23;9.43;;;4.40;99.90;;;;;;5030328;28;20030;-85
2021/05/03 03:48:14;;;;;;;10.40;9.30;;;4.40;99.90;;;;;;5032080;28;20036;-85
2021/05/03 03:50:39;;;;;;;13.07;9.77;;;4.50;99.90;;;;;;5030510;28;20030;-85
2021/05/03 03:53:05;;;;;;;11.35;9.32;;;4.50;99.90;;;;;;5027172;28;20068;-84
2021/05/03 03:55:31;;;;;;;11.20;9.43;;;4.50;99.90;;;;;;5030404;28;20028;-85
2021/05/03 03:57:56;;;;;;;10.93;9.75;;;4.60;99.90;;;;;;5030988;28;20021;-85
2021/05/03 04:00:22;;;;;;;11.57;10.35;;;4.60;99.90;;;;;;5032245;28;20048;-85
2021/05/03 04:02:49;;;;;;;12.70;10.23;;;4.60;99.90;;;;;;5029750;28;20547;-85
2021/05/03 04:11:12;;;;;;;13.52;10.20;;;4.60;99.90;;;;;;5030305;28;20047;-85
2021/05/03 04:14:24;;;;;;;11.48;10.27;;;4.40;99.90;;;;;;5014935;28;20026;-85
2021/05/03 04:21:46;;;;;;;11.82;10.30;;;4.40;99.90;;;;;;5028211;28;20045;-85
2021/05/03 04:24:24;;;;;;;12.10;10.30;;;4.40;99.90;;;;;;5032569;28;20171;-84
2021/05/03 04:26:50;;;;;;;11.60;10.40;;;4.40;99.90;;;;;;5029884;28;20136;-84
2021/05/03 04:29:15;;;;;;;11.48;10.23;;;4.10;99.90;;;;;;5029601;28;20520;-84
2021/05/03 04:31:41;;;;;;;13.98;10.02;;;4.20;99.90;;;;;;5029706;28;20121;-86
2021/05/03 04:34:06;;;;;;;13.13;9.90;;;4.30;99.90;;;;;;5029950;28;20406;-87
2021/05/03 04:36:32;;;;;;;11.50;10.18;;;4.30;99.90;;;;;;5032345;28;20029;-90
2021/05/03 04:38:57;;;;;;;12.20;10.32;;;4.30;99.90;;;;;;5029046;28;20091;-87
2021/05/03 04:41:23;;;;;;;12.43;11.13;;;4.30;99.90;;;;;;5031044;28;20412;-89
2021/05/03 04:43:49;;;;;;;11.45;10.20;;;4.40;99.90;;;;;;5029994;28;20087;-88
2021/05/03 04:46:16;;;;;;;14.57;10.20;;;4.40;99.90;;;;;;5028232;28;20038;-87
2021/05/03 04:48:43;;;;;;;12.60;10.13;;;4.50;99.90;;;;;;5032202;28;20108;-92
2021/05/03 04:51:08;;;;;;;11.93;10.05;;;4.40;99.90;;;;;;5031421;28;20026;-88
2021/05/03 04:53:34;;;;;;;11.90;10.27;;;4.50;99.90;;;;;;5030434;28;20080;-87
2021/05/03 04:56:06;;;;;;;13.45;10.23;;;5.00;99.90;;;;;;5028774;28;20037;-88
2021/05/03 04:58:31;;;;;;;14.77;11.88;;;4.60;99.90;;;;;;5030562;28;20025;-84
2021/05/03 05:00:57;;;;;;;14.00;12.15;;;4.60;99.90;;;;;;5029579;28;20441;-86
2021/05/03 05:03:23;;;;;;;14.55;11.60;;;4.60;99.90;;;;;;5031421;28;20033;-86
2021/05/03 05:05:51;;;;;;;13.23;11.57;;;4.60;99.90;;;;;;5029375;28;20030;-86
2021/05/03 05:08:16;;;;;;;12.60;11.13;;;4.70;99.90;;;;;;5031224;28;20500;-86
2021/05/03 05:10:42;;;;;;;12.40;10.60;;;4.80;99.90;;;;;;5033303;28;20022;-85
2021/05/03 05:13:08;;;;;;;13.00;10.80;;;5.00;99.90;;;;;;5031912;28;20033;-86
2021/05/03 05:15:33;;;;;;;13.77;11.25;;;5.20;99.90;;;;;;5034927;28;20029;-87
2021/05/03 05:17:59;;;;;;;13.57;10.63;;;5.10;99.90;;;;;;5033050;28;20136;-86
2021/05/03 05:20:25;;;;;;;14.55;11.30;;;5.00;99.90;;;;;;5033258;28;20034;-86
2021/05/03 05:22:51;;;;;;;15.35;11.23;;;4.80;99.90;;;;;;5031802;28;20435;-89
2021/05/03 05:25:17;;;;;;;13.25;10.95;;;4.70;99.90;;;;;;5024609;28;20037;-87
2021/05/03 05:27:42;;;;;;;13.52;11.02;;;4.80;99.90;;;;;;5032831;28;20025;-89
2021/05/03 05:30:09;;;;;;;12.90;10.15;;;4.90;99.90;;;;;;5033612;28;20057;-89
2021/05/03 05:32:34;;;;;;;12.95;10.27;;;4.80;99.90;;;;;;5033413;28;20057;-88
2021/05/03 05:35:00;;;;;;;10.80;9.70;;;4.80;99.90;;;;;;5032799;28;20029;-87
2021/05/03 05:37:26;;;;;;;11.23;9.50;;;4.90;99.90;;;;;;5032813;28;20053;-87
2021/05/03 05:39:52;;;;;;;14.55;11.07;;;5.00;99.90;;;;;;5033370;28;20401;-87
2021/05/03 05:42:17;;;;;;;12.38;11.07;;;4.90;99.90;;;;;;5033120;28;20484;-84
2021/05/03 05:44:44;;;;;;;13.88;12.13;;;4.90;99.90;;;;;;5032305;28;20025;-90
2021/05/03 05:47:10;;;;;;;15.77;11.98;;;5.10;99.90;;;;;;5032774;28;20033;-88
2021/05/03 05:49:35;;;;;;;14.32;11.40;;;5.20;99.90;;;;;;5033904;28;20026;-89
2021/05/03 05:52:01;;;;;;;14.73;11.88;;;5.20;99.90;;;;;;5032029;28;20033;-87
2021/05/03 05:54:27;;;;;;;14.93;12.10;;;5.20;99.90;;;;;;5049556;28;20022;-89
2021/05/03 05:56:54;;;;;;;16.00;12.73;;;5.40;99.90;;;;;;5031936;28;20091;-90
2021/05/03 05:59:21;;;;;;;15.93;12.57;;;5.50;99.90;;;;;;5032781;28;20503;-93
2021/05/03 06:01:47;;;;;;;17.75;12.85;;;5.70;99.90;;;;;;5031433;28;20065;-89
2021/05/03 06:04:13;;;;;;;14.30;12.48;;;5.80;99.90;;;;;;5031125;28;20429;-90
2021/05/03 06:06:39;;;;;;;17.75;11.93;;;5.90;99.90;;;;;;5034149;28;20038;-90
2021/05/03 06:09:04;;;;;;;15.50;12.63;;;6.10;99.90;;;;;;5027778;28;20017;-86
2021/05/03 06:11:30;;;;;;;19.25;12.88;;;6.10;99.90;;;;;;5031592;28;20132;-87
2021/05/03 06:13:56;;;;;;;20.80;13.30;;;6.40;99.90;;;;;;5032264;28;20064;-89
2021/05/03 06:16:21;;;;;;;17.73;13.55;;;6.70;99.90;;;;;;5031011;28;20032;-91
2021/05/03 06:18:47;;;;;;;16.95;13.35;;;6.50;99.90;;;;;;5032819;28;20026;-92
2021/05/03 06:21:13;;;;;;;15.57;13.18;;;6.50;99.90;;;;;;5031757;28;20060;-89
2021/05/03 06:23:38;;;;;;;15.80;13.30;;;6.50;99.90;;;;;;5032092;28;20041;-88
2021/05/03 06:26:04;;;;;;;20.27;14.45;;;6.50;99.90;;;;;;5032499;28;20489;-88
2021/05/03 06:28:30;;;;;;;18.23;14.07;;;6.60;99.90;;;;;;5030542;28;20109;-88
2021/05/03 06:30:57;;;;;;;18.95;14.15;;;6.60;99.90;;;;;;5032043;28;20029;-89
2021/05/03 06:33:26;;;;;;;16.05;13.55;;;6.80;99.90;;;;;;5033877;28;20531;-85
2021/05/03 06:35:52;;;;;;;17.17;13.85;;;7.00;99.90;;;;;;5031652;28;20029;-89
2021/05/03 06:38:18;;;;;;;16.55;14.43;;;7.10;99.90;;;;;;5032005;28;20516;-85
2021/05/03 06:40:44;;;;;;;17.17;14.23;;;7.10;99.90;;;;;;5030449;28;20037;-84
2021/05/03 06:43:10;;;;;;;16.85;14.57;;;7.30;99.90;;;;;;5029983;28;20037;-88
2021/05/03 06:45:36;;;;;;;16.80;14.88;;;7.50;99.90;;;;;;5032132;28;20485;-90
2021/05/03 06:48:07;;;;;;;16.60;14.70;;;7.50;99.90;;;;;;5046140;28;20056;-95
2021/05/03 06:50:33;;;;;;;17.02;14.52;;;7.50;99.90;;;;;;5032102;28;20029;-92
2021/05/03 06:52:59;;;;;;;16.55;14.85;;;7.50;99.90;;;;;;5029599;28;20539;-84
2021/05/03 06:55:24;;;;;;;19.20;14.50;;;7.60;99.90;;;;;;5027866;28;20048;-84
2021/05/03 06:57:50;;;;;;;16.65;14.88;;;7.70;99.90;;;;;;5029674;28;20121;-91
2021/05/03 07:00:16;;;;;;;18.65;16.65;;;7.80;99.90;;;;;;5033257;28;20119;-90
2021/05/03 07:02:43;;;;;;;19.38;15.90;;;7.80;99.90;;;;;;5031418;28;20394;-88
2021/05/03 07:05:10;;;;;;;16.58;14.70;;;7.80;99.90;;;;;;5031210;28;20211;-87
2021/05/03 07:07:36;;;;;;;19.92;16.38;;;7.90;99.90;;;;;;5031149;28;20422;-88
2021/05/03 07:10:03;;;;;;;15.00;13.40;;;8.00;99.90;;;;;;5014774;28;20057;-88
2021/05/03 07:12:28;;;;;;;15.68;13.93;;;8.00;99.90;;;;;;5033140;28;20045;-88
2021/05/03 07:14:54;;;;;;;16.95;14.85;;;8.10;99.90;;;;;;5031065;28;20107;-87
2021/05/03 07:17:19;;;;;;;15.65;13.70;;;8.10;99.90;;;;;;5031170;28;20025;-87
2021/05/03 07:19:45;;;;;;;15.40;13.23;;;8.10;99.90;;;;;;5030897;28;20045;-89
2021/05/03 07:22:12;;;;;;;13.25;11.95;;;8.20;99.90;;;;;;5031271;28;20026;-88
2021/05/03 07:24:39;;;;;;;13.98;12.45;;;8.20;99.90;;;;;;5031075;28;20030;-90
2021/05/03 07:27:06;;;;;;;13.48;12.13;;;8.40;99.90;;;;;;5031867;28;20025;-91
2021/05/03 07:29:32;;;;;;;13.60;11.98;;;8.40;99.90;;;;;;5029631;28;20034;-87
2021/05/03 07:31:58;;;;;;;14.25;12.60;;;8.60;99.90;;;;;;5030164;28;20083;-88
2021/05/03 07:34:24;;;;;;;13.45;12.02;;;8.70;99.90;;;;;;5030840;28;20025;-90
2021/05/03 07:36:49;;;;;;;16.20;13.98;;;9.30;99.90;;;;;;5032138;28;20037;-87
2021/05/03 07:39:15;;;;;;;14.18;12.68;;;8.80;99.90;;;;;;5030440;28;20420;-88
2021/05/03 07:41:41;;;;;;;14.02;12.23;;;8.90;99.90;;;;;;5030381;28;20497;-87
2021/05/03 07:44:08;;;;;;;16.45;13.30;;;9.40;99.90;;;;;;5030438;28;20079;-89
2021/05/03 07:46:34;;;;;;;15.00;13.23;;;8.90;99.90;;;;;;5030594;28;20018;-89
2021/05/03 07:49:01;;;;;;;14.18;12.70;;;9.10;99.90;;;;;;5030764;28;20029;-88
2021/05/03 07:51:27;;;;;;;12.80;11.50;;;9.20;99.90;;;;;;5032555;28;20029;-88
2021/05/03 07:53:54;;;;;;;14.65;11.93;;;9.20;99.90;;;;;;5029791;28;20559;-88
2021/05/03 07:56:19;;;;;;;12.90;11.60;;;9.20;99.90;;;;;;5030158;28;20041;-89
2021/05/03 07:58:46;;;;;;;16.58;12.60;;;9.10;99.90;;;;;;5029000;28;20094;-89
2021/05/03 08:01:13;;;;;;;13.27;11.98;;;9.80;99.90;;;;;;5030978;28;20390;-88
2021/05/03 08:03:41;;;;;;;12.15;10.85;;;9.30;99.90;;;;;;5031957;28;20465;-89
2021/05/03 08:06:12;;;;;;;13.30;11.90;;;9.50;99.90;;;;;;5031143;28;20029;-94
2021/05/03 08:08:37;;;;;;;12.52;11.13;;;9.60;99.90;;;;;;5029871;28;20029;-89
2021/05/03 08:11:03;;;;;;;14.10;10.85;;;9.60;99.90;;;;;;5030921;28;20095;-92
2021/05/03 08:13:29;;;;;;;12.00;10.80;;;9.60;99.90;;;;;;5031278;28;20501;-90
2021/05/03 08:15:58;;;;;;;11.13;9.52;;;10.20;99.90;;;;;;5029643;28;20044;-90
2021/05/03 08:18:24;;;;;;;11.50;10.30;;;10.00;99.90;;;;;;5031828;28;20034;-85
2021/05/03 08:20:51;;;;;;;11.20;10.15;;;9.80;99.90;;;;;;5029466;28;20056;-84
2021/05/03 08:23:19;;;;;;;11.88;10.55;;;10.10;99.90;;;;;;5029742;28;20033;-85
2021/05/03 08:25:50;;;;;;;10.95;9.85;;;9.90;99.90;;;;;;5029904;28;20026;-85
2021/05/03 08:28:17;;;;;;;10.77;9.68;;;10.00;99.90;;;;;;5027605;28;20036;-85
2021/05/03 08:30:43;;;;;;;11.10;9.85;;;10.10;99.90;;;;;;5031298;28;20025;-85
2021/05/03 08:33:09;;;;;;;9.55;8.65;;;10.20;99.90;;;;;;5028716;28;20529;-85
2021/05/03 08:35:35;;;;;;;11.68;10.57;;;10.30;99.90;;;;;;5029874;28;20026;-85
2021/05/03 08:38:02;;;;;;;11.20;10.00;;;10.30;99.90;;;;;;5029610;28;20468;-85
2021/05/03 08:40:28;;;;;;;11.23;10.13;;;10.20;99.90;;;;;;5028431;28;20095;-85
2021/05/03 08:42:55;;;;;;;11.05;9.88;;;10.40;99.90;;;;;;5032232;28;20029;-85
2021/05/03 08:45:21;;;;;;;10.07;9.07;;;10.60;99.90;;;;;;5032084;28;20037;-85
2021/05/03 08:50:48;;;;;;;10.32;9.30;;;10.90;99.90;;;;;;5033653;28;20041;-85
2021/05/03 08:53:17;;;;;;;9.98;8.70;;;11.10;99.90;;;;;;5033312;28;20074;-85
2021/05/03 08:55:44;;;;;;;9.80;8.30;;;11.30;99.90;;;;;;5034319;28;20107;-90
2021/05/03 08:58:09;;;;;;;10.00;8.90;;;11.50;99.90;;;;;;5033472;28;20497;-84
2021/05/03 09:00:35;;;;;;;10.57;8.77;;;11.70;99.90;;;;;;5034374;28;20037;-85
2021/05/03 09:03:05;;;;;;;10.25;9.15;;;11.30;99.90;;;;;;5034390;28;20117;-85
2021/05/03 09:05:32;;;;;;;10.07;8.98;;;11.40;99.90;;;;;;5033136;28;20121;-85
2021/05/03 09:07:58;;;;;;;9.98;9.02;;;11.60;99.90;;;;;;5031303;28;20432;-87
2021/05/03 09:10:25;;;;;;;11.48;9.15;;;11.50;99.90;;;;;;5033713;28;20033;-86
2021/05/03 09:12:50;;;;;;;9.35;8.40;;;11.50;99.90;;;;;;5033132;28;20483;-86
2021/05/03 09:15:24;;;;;;;9.75;8.82;;;11.70;99.90;;;;;;5035829;28;20104;-86
2021/05/03 09:17:51;;;;;;;9.65;8.70;;;12.00;99.90;;;;;;5033647;28;20036;-85
2021/05/03 09:20:19;;;;;;;11.82;9.10;;;12.00;99.90;;;;;;5031942;28;20041;-86
2021/05/03 09:25:34;;;;;;;9.05;8.15;;;11.80;99.90;;;;;;5032796;28;20061;-85
2021/05/03 09:28:09;;;;;;;9.00;8.15;;;12.00;99.90;;;;;;5033635;28;20038;-85
2021/05/03 09:30:57;;;;;;;9.13;8.10;;;12.10;99.90;;;;;;5030991;28;20091;-85
2021/05/03 09:33:35;;;;;;;10.05;8.70;;;12.20;99.90;;;;;;5027539;28;20135;-83
2021/05/03 09:36:07;;;;;;;12.00;8.82;;;12.10;99.90;;;;;;5024975;28;20041;-83
2021/05/03 09:38:47;;;;;;;8.80;7.97;;;12.40;99.90;;;;;;5032379;28;20104;-83
2021/05/03 09:41:19;;;;;;;8.80;8.00;;;12.90;99.90;;;;;;5032604;28;20037;-85
2021/05/03 09:43:48;;;;;;;8.98;8.05;;;12.50;99.90;;;;;;5032396;28;20029;-83
2021/05/03 09:46:27;;;;;;;9.25;8.35;;;12.70;99.90;;;;;;5032690;28;20096;-84
2021/05/03 09:48:54;;;;;;;9.15;8.25;;;12.60;99.90;;;;;;5032572;28;20037;-84
2021/05/03 09:51:33;;;;;;;9.80;8.68;;;12.70;99.90;;;;;;5034052;28;20155;-82
2021/05/03 09:54:22;;;;;;;9.27;7.32;;;13.00;99.90;;;;;;5032243;28;20055;-84
2021/05/03 09:57:04;;;;;;;8.10;7.10;;;13.20;99.90;;;;;;5032006;28;20037;-85
2021/05/03 09:59:32;;;;;;;6.85;6.22;;;13.40;99.90;;;;;;5031608;28;20096;-85
2021/05/03 10:02:03;;;;;;;7.78;5.95;;;13.70;99.90;;;;;;5036370;28;20025;-89
2021/05/03 10:04:30;;;;;;;5.63;5.13;;;13.60;99.90;;;;;;5034300;28;20115;-87
2021/05/03 10:06:56;;;;;;;5.35;4.85;;;14.00;99.90;;;;;;5031123;28;20397;-92
2021/05/03 10:09:23;;;;;;;5.05;4.55;;;14.00;99.90;;;;;;5035718;28;20026;-94
2021/05/03 10:11:49;;;;;;;4.95;4.45;;;14.60;99.90;;;;;;5033290;28;20084;-90
2021/05/03 10:14:15;;;;;;;6.22;4.40;;;14.20;99.90;;;;;;5032740;28;20025;-86
2021/05/03 10:16:41;;;;;;;3.80;3.40;;;14.20;99.90;;;;;;5030078;28;20052;-90
2021/05/03 10:19:07;;;;;;;3.58;3.28;;;14.40;99.90;;;;;;5032671;28;20433;-90
2021/05/03 10:21:34;;;;;;;4.22;2.83;;;14.20;99.90;;;;;;5034356;28;20044;-88
2021/05/03 10:24:01;;;;;;;4.40;3.40;;;14.30;99.90;;;;;;5033270;28;20021;-96
2021/05/03 10:26:27;;;;;;;3.88;3.25;;;14.60;99.90;;;;;;5031324;28;20040;-93
2021/05/03 10:28:55;;;;;;;6.47;4.30;;;14.40;99.90;;;;;;5032504;28;20037;-87
2021/05/03 10:31:22;;;;;;;4.63;3.85;;;14.80;99.90;;;;;;5032322;28;20516;-91
2021/05/03 10:33:48;;;;;;;4.30;3.90;;;14.30;99.90;;;;;;5031649;28;20025;-90
2021/05/03 10:36:36;;;;;;;3.47;3.13;;;14.30;99.90;;;;;;5034644;28;20033;-92
2021/05/03 10:39:28;;;;;;;3.38;2.95;;;14.60;99.90;;;;;;5031085;28;20025;-91
2021/05/03 10:42:07;;;;;;;2.55;2.35;;;15.00;99.90;;;;;;5031964;28;20139;-92
2021/05/03 10:44:36;;;;;;;3.22;3.00;;;15.10;99.90;;;;;;5032810;28;20028;-91
2021/05/03 10:47:33;;;;;;;3.60;2.83;;;15.20;99.90;;;;;;5031246;28;20068;-86
2021/05/03 10:49:59;;;;;;;2.60;2.40;;;15.60;99.90;;;;;;5030944;28;20029;-86
2021/05/03 10:52:37;;;;;;;3.75;3.15;;;16.20;99.90;;;;;;5031094;28;20379;-86
2021/05/03 10:55:03;;;;;;;3.53;3.22;;;16.60;99.90;;;;;;5015142;28;20441;-90
2021/05/03 10:57:31;;;;;;;3.80;3.50;;;19.10;99.90;;;;;;5032802;28;20033;-87
2021/05/03 10:59:59;;;;;;;3.75;2.80;;;22.50;99.90;;;;;;5031051;28;20037;-85
2021/05/03 11:02:26;;;;;;;3.20;2.90;;;26.10;99.90;;;;;;5031537;28;20029;-86
2021/05/03 11:05:24;;;;;;;2.92;2.72;;;27.40;99.90;;;;;;5030701;28;20032;-86
2021/05/03 11:08:09;;;;;;;2.83;2.63;;;28.60;99.90;;;;;;5031057;28;20029;-84
2021/05/03 11:11:13;;;;;;;3.38;3.08;;;29.90;99.90;;;;;;5031591;28;20485;-85
2021/05/03 11:13:55;;;;;;;3.45;3.15;;;29.40;99.90;;;;;;4979075;28;20026;-85
2021/05/03 11:16:30;;;;;;;3.70;3.20;;;29.80;99.90;;;;;;4988038;28;20039;-85
2021/05/03 11:19:00;;;;;;;3.55;3.25;;;30.40;99.90;;;;;;4989560;28;20042;-85
2021/05/03 11:21:47;;;;;;;4.32;3.20;;;31.90;99.90;;;;;;4991704;28;20046;-86
2021/05/03 11:24:30;;;;;;;3.97;3.67;;;30.40;99.90;;;;;;4989462;28;20042;-86
2021/05/03 11:27:08;;;;;;;3.55;3.25;;;30.90;99.90;;;;;;4989348;28;20431;-87
2021/05/03 11:32:00;;;;;;;4.60;3.35;;;32.30;99.90;;;;;;4988663;28;20042;-87
2021/05/03 11:34:39;;;;;;;4.15;3.50;;;31.70;99.90;;;;;;4987823;28;20027;-87
2021/05/03 11:37:08;;;;;;;3.60;3.30;;;31.80;99.90;;;;;;4973219;28;20092;-86
2021/05/03 11:44:56;;;;;;;3.92;3.63;;;30.80;99.90;;;;;;5016689;28;20432;-86
2021/05/03 11:47:53;;;;;;;3.50;3.30;;;31.10;99.90;;;;;;5030454;28;20029;-87
2021/05/03 11:50:20;;;;;;;3.85;3.45;;;29.30;99.90;;;;;;5034376;28;20493;-86
2021/05/03 11:52:46;;;;;;;3.58;3.15;;;30.90;99.90;;;;;;5030498;28;20460;-87
2021/05/03 11:55:14;;;;;;;4.72;3.17;;;32.10;99.90;;;;;;5029066;28;20113;-87
2021/05/03 11:57:44;;;;;;;3.20;3.00;;;31.20;99.90;;;;;;5031844;28;20057;-87
2021/05/03 12:00:15;;;;;;;3.35;3.15;;;32.30;99.90;;;;;;5032072;28;20087;-87
2021/05/03 12:02:41;;;;;;;3.00;2.72;;;32.60;99.90;;;;;;5028732;28;20091;-87
2021/05/03 12:05:18;;;;;;;7.15;3.10;;;32.60;99.90;;;;;;5030823;28;20025;-87
2021/05/03 12:07:45;;;;;;;3.72;2.72;;;32.90;99.90;;;;;;5028655;28;20036;-87
2021/05/03 12:10:21;;;;;;;3.53;3.30;;;32.50;99.90;;;;;;5030991;28;20044;-87
2021/05/03 12:12:54;;;;;;;3.40;3.10;;;31.10;99.90;;;;;;5030862;28;20028;-87
2021/05/03 12:15:25;;;;;;;3.28;3.08;;;32.50;99.90;;;;;;5031645;28;20029;-87
2021/05/03 12:17:52;;;;;;;3.08;2.85;;;30.80;99.90;;;;;;5027962;28;20088;-87
2021/05/03 12:20:22;;;;;;;3.65;3.20;;;29.70;99.90;;;;;;5030738;28;20481;-87
2021/05/03 12:23:00;;;;;;;4.10;3.20;;;29.90;99.90;;;;;;5030530;28;20025;-86
2021/05/03 12:25:27;;;;;;;3.42;3.13;;;31.00;99.90;;;;;;5030754;28;20493;-87
2021/05/03 12:27:53;;;;;;;3.25;2.95;;;31.10;99.90;;;;;;5030907;28;20501;-86
2021/05/03 12:30:19;;;;;;;3.58;2.97;;;32.20;99.90;;;;;;5032314;28;20029;-87
2021/05/03 12:32:45;;;;;;;3.20;3.00;;;31.80;99.90;;;;;;5030463;28;20049;-87
2021/05/03 12:35:14;;;;;;;3.40;3.10;;;31.70;99.90;;;;;;5028999;28;20033;-87
2021/05/03 12:37:41;;;;;;;3.10;2.90;;;32.40;99.90;;;;;;5031002;28;20093;-87
2021/05/03 12:40:08;;;;;;;3.30;3.00;;;32.30;99.90;;;;;;5030588;28;20119;-87
2021/05/03 12:42:38;;;;;;;3.20;2.90;;;32.30;99.90;;;;;;5032365;28;20032;-87
2021/05/03 12:45:27;;;;;;;2.88;2.67;;;31.70;99.90;;;;;;5031195;28;20072;-87
2021/05/03 12:53:02;;;;;;;2.85;2.30;;;31.80;99.90;;;;;;5030190;28;20103;-87
2021/05/03 13:01:16;;;;;;;3.08;2.38;;;30.60;99.90;;;;;;5030733;28;20140;-87
2021/05/03 13:03:52;;;;;;;2.88;2.35;;;30.90;99.90;;;;;;5028773;28;20030;-87
2021/05/03 13:12:48;;;;;;;3.53;3.20;;;29.70;99.90;;;;;;5030303;28;20056;-87
2021/05/03 13:29:08;;;;;;;2.83;2.63;;;28.70;99.90;;;;;;5031788;28;20114;-87
2021/05/03 13:31:35;;;;;;;2.80;2.45;;;28.00;99.90;;;;;;5033418;28;20136;-87
2021/05/03 13:34:03;;;;;;;2.88;2.63;;;28.50;99.90;;;;;;5033671;28;20402;-87
2021/05/03 13:36:29;;;;;;;2.70;2.50;;;27.80;99.90;;;;;;5035470;28;20056;-87
2021/05/03 13:38:56;;;;;;;3.05;2.78;;;28.20;99.90;;;;;;5033564;28;20159;-87
2021/05/03 13:41:22;;;;;;;3.80;3.40;;;28.10;99.90;;;;;;5027314;28;20512;-87
2021/05/03 13:43:48;;;;;;;3.35;2.72;;;27.30;99.90;;;;;;5033497;28;20115;-87